sensor_id;sensor_type;location;lat;lon;timestamp;temperature;humidity
18101;DHT22;9177;49.156;8.142;2023-04-24T00:00:29;19.60;95.80
18101;DHT22;9177;49.156;8.142;2023-04-24T00:02:56;19.60;95.80
18101;DHT22;9177;49.156;8.142;2023-04-24T00:05:25;19.60;95.80
18101;DHT22;9177;49.156;8.142;2023-04-24T00:07:51;19.60;95.80
18101;DHT22;9177;49.156;8.142;2023-04-24T00:10:19;19.60;95.80
18101;DHT22;9177;49.156;8.142;2023-04-24T00:12:46;19.60;95.80
18101;DHT22;9177;49.156;8.142;2023-04-24T00:15:14;19.60;95.80
18101;DHT22;9177;49.156;8.142;2023-04-24T00:17:40;19.60;95.80
18101;DHT22;9177;49.156;8.142;2023-04-24T00:20:08;19.60;95.80
18101;DHT22;9177;49.156;8.142;2023-04-24T00:22:38;19.60;95.80
18101;DHT22;9177;49.156;8.142;2023-04-24T00:25:06;19.60;95.80
18101;DHT22;9177;49.156;8.142;2023-04-24T00:27:33;19.60;95.80
18101;DHT22;9177;49.156;8.142;2023-04-24T00:30:02;19.60;95.80
18101;DHT22;9177;49.156;8.142;2023-04-24T00:32:30;19.60;95.80
18101;DHT22;9177;49.156;8.142;2023-04-24T00:34:57;19.60;95.80
18101;DHT22;9177;49.156;8.142;2023-04-24T00:37:26;19.60;95.80
18101;DHT22;9177;49.156;8.142;2023-04-24T00:39:55;19.60;95.80
18101;DHT22;9177;49.156;8.142;2023-04-24T00:42:22;19.60;95.80
18101;DHT22;9177;49.156;8.142;2023-04-24T00:44:49;19.60;95.80
18101;DHT22;9177;49.156;8.142;2023-04-24T00:47:16;19.60;95.80
18101;DHT22;9177;49.156;8.142;2023-04-24T00:49:45;19.60;95.80
18101;DHT22;9177;49.156;8.142;2023-04-24T00:52:11;19.60;96.10
18101;DHT22;9177;49.156;8.142;2023-04-24T00:54:43;19.60;95.80
18101;DHT22;9177;49.156;8.142;2023-04-24T00:57:13;19.60;95.80
18101;DHT22;9177;49.156;8.142;2023-04-24T00:59:40;19.60;95.80
18101;DHT22;9177;49.156;8.142;2023-04-24T01:02:07;19.60;95.80
18101;DHT22;9177;49.156;8.142;2023-04-24T01:04:36;19.60;95.80
18101;DHT22;9177;49.156;8.142;2023-04-24T01:07:03;19.60;95.80
18101;DHT22;9177;49.156;8.142;2023-04-24T01:09:35;19.60;95.80
18101;DHT22;9177;49.156;8.142;2023-04-24T01:12:03;19.60;95.80
18101;DHT22;9177;49.156;8.142;2023-04-24T01:14:32;19.50;95.70
18101;DHT22;9177;49.156;8.142;2023-04-24T01:16:59;19.50;95.80
18101;DHT22;9177;49.156;8.142;2023-04-24T01:19:27;19.60;95.80
18101;DHT22;9177;49.156;8.142;2023-04-24T01:21:58;19.60;95.80
18101;DHT22;9177;49.156;8.142;2023-04-24T01:24:26;19.50;95.80
18101;DHT22;9177;49.156;8.142;2023-04-24T01:26:54;19.50;95.80
18101;DHT22;9177;49.156;8.142;2023-04-24T01:29:21;19.50;95.80
18101;DHT22;9177;49.156;8.142;2023-04-24T01:31:48;19.50;96.10
18101;DHT22;9177;49.156;8.142;2023-04-24T01:34:15;19.50;95.80
18101;DHT22;9177;49.156;8.142;2023-04-24T01:36:43;19.50;95.80
18101;DHT22;9177;49.156;8.142;2023-04-24T01:39:12;19.50;95.80
18101;DHT22;9177;49.156;8.142;2023-04-24T01:41:40;19.50;95.80
18101;DHT22;9177;49.156;8.142;2023-04-24T01:44:07;19.50;95.80
18101;DHT22;9177;49.156;8.142;2023-04-24T01:46:34;19.50;96.10
18101;DHT22;9177;49.156;8.142;2023-04-24T01:49:02;19.50;95.80
18101;DHT22;9177;49.156;8.142;2023-04-24T01:51:29;19.50;95.80
18101;DHT22;9177;49.156;8.142;2023-04-24T01:53:57;19.50;95.80
18101;DHT22;9177;49.156;8.142;2023-04-24T01:56:24;19.50;95.80
18101;DHT22;9177;49.156;8.142;2023-04-24T01:58:53;19.50;95.80
18101;DHT22;9177;49.156;8.142;2023-04-24T02:01:21;19.50;95.80
18101;DHT22;9177;49.156;8.142;2023-04-24T02:03:49;19.50;95.80
18101;DHT22;9177;49.156;8.142;2023-04-24T02:06:15;19.50;95.80
18101;DHT22;9177;49.156;8.142;2023-04-24T02:08:42;19.50;95.80
18101;DHT22;9177;49.156;8.142;2023-04-24T02:11:09;19.50;95.80
18101;DHT22;9177;49.156;8.142;2023-04-24T02:13:36;19.50;95.80
18101;DHT22;9177;49.156;8.142;2023-04-24T02:16:04;19.50;95.80
18101;DHT22;9177;49.156;8.142;2023-04-24T02:18:31;19.50;95.80
18101;DHT22;9177;49.156;8.142;2023-04-24T02:20:58;19.50;95.80
18101;DHT22;9177;49.156;8.142;2023-04-24T02:23:25;19.50;95.80
18101;DHT22;9177;49.156;8.142;2023-04-24T02:25:52;19.50;95.80
18101;DHT22;9177;49.156;8.142;2023-04-24T02:28:19;19.50;95.80
18101;DHT22;9177;49.156;8.142;2023-04-24T02:30:46;19.50;95.80
18101;DHT22;9177;49.156;8.142;2023-04-24T02:33:15;19.50;95.90
18101;DHT22;9177;49.156;8.142;2023-04-24T02:35:41;19.50;95.90
18101;DHT22;9177;49.156;8.142;2023-04-24T02:38:08;19.50;95.80
18101;DHT22;9177;49.156;8.142;2023-04-24T02:40:35;19.50;95.90
18101;DHT22;9177;49.156;8.142;2023-04-24T02:43:02;19.50;95.90
18101;DHT22;9177;49.156;8.142;2023-04-24T02:45:29;19.50;95.90
18101;DHT22;9177;49.156;8.142;2023-04-24T02:47:56;19.50;95.90
18101;DHT22;9177;49.156;8.142;2023-04-24T02:50:24;19.50;95.90
18101;DHT22;9177;49.156;8.142;2023-04-24T02:52:51;19.50;95.90
18101;DHT22;9177;49.156;8.142;2023-04-24T02:55:18;19.50;95.90
18101;DHT22;9177;49.156;8.142;2023-04-24T02:57:44;19.50;95.90
18101;DHT22;9177;49.156;8.142;2023-04-24T03:00:12;19.50;95.90
18101;DHT22;9177;49.156;8.142;2023-04-24T03:02:39;19.50;95.90
18101;DHT22;9177;49.156;8.142;2023-04-24T03:05:06;19.50;95.80
18101;DHT22;9177;49.156;8.142;2023-04-24T03:07:36;19.50;95.80
18101;DHT22;9177;49.156;8.142;2023-04-24T03:10:03;19.70;95.80
18101;DHT22;9177;49.156;8.142;2023-04-24T03:12:31;19.80;95.70
18101;DHT22;9177;49.156;8.142;2023-04-24T03:14:57;20.00;95.40
18101;DHT22;9177;49.156;8.142;2023-04-24T03:17:25;20.30;95.20
18101;DHT22;9177;49.156;8.142;2023-04-24T03:19:51;20.50;94.80
18101;DHT22;9177;49.156;8.142;2023-04-24T03:22:18;20.80;94.50
18101;DHT22;9177;49.156;8.142;2023-04-24T03:24:47;21.00;94.30
18101;DHT22;9177;49.156;8.142;2023-04-24T03:27:14;21.20;94.00
18101;DHT22;9177;49.156;8.142;2023-04-24T03:29:41;21.30;93.80
18101;DHT22;9177;49.156;8.142;2023-04-24T03:32:08;21.40;93.60
18101;DHT22;9177;49.156;8.142;2023-04-24T03:34:34;21.60;93.40
18101;DHT22;9177;49.156;8.142;2023-04-24T03:37:01;21.60;93.30
18101;DHT22;9177;49.156;8.142;2023-04-24T03:39:28;21.70;93.20
18101;DHT22;9177;49.156;8.142;2023-04-24T03:41:56;21.70;93.20
18101;DHT22;9177;49.156;8.142;2023-04-24T03:44:23;21.70;93.20
18101;DHT22;9177;49.156;8.142;2023-04-24T03:46:50;21.60;93.20
18101;DHT22;9177;49.156;8.142;2023-04-24T03:49:17;21.60;93.20
18101;DHT22;9177;49.156;8.142;2023-04-24T03:51:44;21.50;93.30
18101;DHT22;9177;49.156;8.142;2023-04-24T03:54:11;21.40;93.40
18101;DHT22;9177;49.156;8.142;2023-04-24T03:56:38;21.30;93.40
18101;DHT22;9177;49.156;8.142;2023-04-24T03:59:06;21.20;93.50
18101;DHT22;9177;49.156;8.142;2023-04-24T04:01:33;21.10;93.50
18101;DHT22;9177;49.156;8.142;2023-04-24T04:04:02;21.10;93.60
18101;DHT22;9177;49.156;8.142;2023-04-24T04:06:29;21.00;93.60
18101;DHT22;9177;49.156;8.142;2023-04-24T04:08:57;20.90;93.70
18101;DHT22;9177;49.156;8.142;2023-04-24T04:11:24;20.90;93.80
18101;DHT22;9177;49.156;8.142;2023-04-24T04:13:51;20.80;93.90
18101;DHT22;9177;49.156;8.142;2023-04-24T04:16:19;20.80;93.90
18101;DHT22;9177;49.156;8.142;2023-04-24T04:18:46;20.70;93.90
18101;DHT22;9177;49.156;8.142;2023-04-24T04:21:13;20.70;94.00
18101;DHT22;9177;49.156;8.142;2023-04-24T04:23:40;20.60;94.00
18101;DHT22;9177;49.156;8.142;2023-04-24T04:26:07;20.60;94.00
18101;DHT22;9177;49.156;8.142;2023-04-24T04:28:34;20.60;94.10
18101;DHT22;9177;49.156;8.142;2023-04-24T04:31:01;20.50;94.10
18101;DHT22;9177;49.156;8.142;2023-04-24T04:33:29;20.50;94.20
18101;DHT22;9177;49.156;8.142;2023-04-24T04:35:58;20.40;94.20
18101;DHT22;9177;49.156;8.142;2023-04-24T04:38:27;20.40;94.20
18101;DHT22;9177;49.156;8.142;2023-04-24T04:40:55;20.40;94.30
18101;DHT22;9177;49.156;8.142;2023-04-24T04:43:23;20.30;94.30
18101;DHT22;9177;49.156;8.142;2023-04-24T04:45:50;20.30;94.30
18101;DHT22;9177;49.156;8.142;2023-04-24T04:48:17;20.30;94.40
18101;DHT22;9177;49.156;8.142;2023-04-24T04:50:46;20.20;94.40
18101;DHT22;9177;49.156;8.142;2023-04-24T04:53:13;20.20;94.80
18101;DHT22;9177;49.156;8.142;2023-04-24T04:55:39;20.20;94.40
18101;DHT22;9177;49.156;8.142;2023-04-24T04:58:06;20.20;94.50
18101;DHT22;9177;49.156;8.142;2023-04-24T05:00:33;20.10;94.50
18101;DHT22;9177;49.156;8.142;2023-04-24T05:03:01;20.10;94.50
18101;DHT22;9177;49.156;8.142;2023-04-24T05:05:28;20.10;94.50
18101;DHT22;9177;49.156;8.142;2023-04-24T05:07:56;20.10;94.60
18101;DHT22;9177;49.156;8.142;2023-04-24T05:10:23;20.10;94.60
18101;DHT22;9177;49.156;8.142;2023-04-24T05:12:50;20.10;94.60
18101;DHT22;9177;49.156;8.142;2023-04-24T05:15:17;20.00;94.60
18101;DHT22;9177;49.156;8.142;2023-04-24T05:17:43;20.10;94.70
18101;DHT22;9177;49.156;8.142;2023-04-24T05:20:11;20.00;94.60
18101;DHT22;9177;49.156;8.142;2023-04-24T05:22:38;20.00;94.60
18101;DHT22;9177;49.156;8.142;2023-04-24T05:25:07;20.00;94.60
18101;DHT22;9177;49.156;8.142;2023-04-24T05:27:34;20.10;94.60
18101;DHT22;9177;49.156;8.142;2023-04-24T05:30:01;20.10;94.60
18101;DHT22;9177;49.156;8.142;2023-04-24T05:32:30;20.10;94.50
18101;DHT22;9177;49.156;8.142;2023-04-24T05:34:57;20.10;94.50
18101;DHT22;9177;49.156;8.142;2023-04-24T05:37:24;20.10;94.50
18101;DHT22;9177;49.156;8.142;2023-04-24T05:39:51;20.10;94.50
18101;DHT22;9177;49.156;8.142;2023-04-24T05:42:19;20.10;94.80
18101;DHT22;9177;49.156;8.142;2023-04-24T05:44:46;20.20;94.50
18101;DHT22;9177;49.156;8.142;2023-04-24T05:47:13;20.20;94.40
18101;DHT22;9177;49.156;8.142;2023-04-24T05:49:39;20.20;94.40
18101;DHT22;9177;49.156;8.142;2023-04-24T05:52:07;20.20;94.40
18101;DHT22;9177;49.156;8.142;2023-04-24T05:54:34;20.20;94.40
18101;DHT22;9177;49.156;8.142;2023-04-24T05:57:01;20.20;94.40
18101;DHT22;9177;49.156;8.142;2023-04-24T05:59:36;20.20;94.40
18101;DHT22;9177;49.156;8.142;2023-04-24T06:02:03;20.20;94.40
18101;DHT22;9177;49.156;8.142;2023-04-24T06:04:29;20.20;94.40
18101;DHT22;9177;49.156;8.142;2023-04-24T06:06:56;20.20;94.40
18101;DHT22;9177;49.156;8.142;2023-04-24T06:09:23;20.20;94.40
18101;DHT22;9177;49.156;8.142;2023-04-24T06:11:50;20.20;94.40
18101;DHT22;9177;49.156;8.142;2023-04-24T06:14:18;20.20;94.40
18101;DHT22;9177;49.156;8.142;2023-04-24T06:16:46;20.20;94.40
18101;DHT22;9177;49.156;8.142;2023-04-24T06:19:13;20.20;94.40
18101;DHT22;9177;49.156;8.142;2023-04-24T06:21:40;20.20;94.40
18101;DHT22;9177;49.156;8.142;2023-04-24T06:24:07;20.20;94.40
18101;DHT22;9177;49.156;8.142;2023-04-24T06:26:34;20.20;94.40
18101;DHT22;9177;49.156;8.142;2023-04-24T06:29:01;20.20;94.40
18101;DHT22;9177;49.156;8.142;2023-04-24T06:31:28;20.20;94.40
18101;DHT22;9177;49.156;8.142;2023-04-24T06:33:56;20.10;94.40
18101;DHT22;9177;49.156;8.142;2023-04-24T06:36:23;20.20;94.60
18101;DHT22;9177;49.156;8.142;2023-04-24T06:38:50;20.20;94.70
18101;DHT22;9177;49.156;8.142;2023-04-24T06:41:17;20.20;94.80
18101;DHT22;9177;49.156;8.142;2023-04-24T06:43:44;20.20;94.80
18101;DHT22;9177;49.156;8.142;2023-04-24T06:46:10;20.10;94.80
18101;DHT22;9177;49.156;8.142;2023-04-24T06:48:38;20.10;94.70
18101;DHT22;9177;49.156;8.142;2023-04-24T06:51:06;19.70;94.50
18101;DHT22;9177;49.156;8.142;2023-04-24T06:53:33;19.40;94.60
18101;DHT22;9177;49.156;8.142;2023-04-24T06:56:00;19.20;94.60
18101;DHT22;9177;49.156;8.142;2023-04-24T06:58:27;19.10;94.50
18101;DHT22;9177;49.156;8.142;2023-04-24T07:00:54;19.20;94.80
18101;DHT22;9177;49.156;8.142;2023-04-24T07:03:21;19.40;94.70
18101;DHT22;9177;49.156;8.142;2023-04-24T07:05:48;19.60;94.50
18101;DHT22;9177;49.156;8.142;2023-04-24T07:08:16;19.70;94.30
18101;DHT22;9177;49.156;8.142;2023-04-24T07:10:43;19.80;94.00
18101;DHT22;9177;49.156;8.142;2023-04-24T07:13:10;19.90;94.00
18101;DHT22;9177;49.156;8.142;2023-04-24T07:15:37;20.00;93.90
18101;DHT22;9177;49.156;8.142;2023-04-24T07:18:05;20.00;93.80
18101;DHT22;9177;49.156;8.142;2023-04-24T07:20:32;20.00;93.70
18101;DHT22;9177;49.156;8.142;2023-04-24T07:23:00;20.00;93.70
18101;DHT22;9177;49.156;8.142;2023-04-24T07:25:28;20.10;93.70
18101;DHT22;9177;49.156;8.142;2023-04-24T07:27:55;20.10;93.70
18101;DHT22;9177;49.156;8.142;2023-04-24T07:30:21;20.10;93.70
18101;DHT22;9177;49.156;8.142;2023-04-24T07:32:48;20.10;93.70
18101;DHT22;9177;49.156;8.142;2023-04-24T07:35:16;20.10;93.70
18101;DHT22;9177;49.156;8.142;2023-04-24T07:37:44;20.10;93.60
18101;DHT22;9177;49.156;8.142;2023-04-24T07:40:11;20.20;93.60
18101;DHT22;9177;49.156;8.142;2023-04-24T07:42:40;20.20;93.60
18101;DHT22;9177;49.156;8.142;2023-04-24T07:45:07;20.30;93.50
18101;DHT22;9177;49.156;8.142;2023-04-24T07:47:34;20.30;93.50
18101;DHT22;9177;49.156;8.142;2023-04-24T07:50:02;20.30;93.50
18101;DHT22;9177;49.156;8.142;2023-04-24T07:52:29;20.20;93.60
18101;DHT22;9177;49.156;8.142;2023-04-24T07:54:57;20.20;93.60
18101;DHT22;9177;49.156;8.142;2023-04-24T07:57:27;20.10;93.70
18101;DHT22;9177;49.156;8.142;2023-04-24T07:59:55;20.10;93.70
18101;DHT22;9177;49.156;8.142;2023-04-24T08:02:22;20.10;93.80
18101;DHT22;9177;49.156;8.142;2023-04-24T08:04:52;20.10;93.80
18101;DHT22;9177;49.156;8.142;2023-04-24T08:07:19;20.10;93.80
18101;DHT22;9177;49.156;8.142;2023-04-24T08:09:46;20.10;93.90
18101;DHT22;9177;49.156;8.142;2023-04-24T08:12:13;20.00;93.90
18101;DHT22;9177;49.156;8.142;2023-04-24T08:14:40;20.00;93.90
18101;DHT22;9177;49.156;8.142;2023-04-24T08:17:08;20.00;93.90
18101;DHT22;9177;49.156;8.142;2023-04-24T08:19:40;20.00;93.90
18101;DHT22;9177;49.156;8.142;2023-04-24T08:22:08;20.00;93.90
18101;DHT22;9177;49.156;8.142;2023-04-24T08:24:35;20.10;93.90
18101;DHT22;9177;49.156;8.142;2023-04-24T08:27:03;20.10;93.80
18101;DHT22;9177;49.156;8.142;2023-04-24T08:29:30;20.20;93.80
18101;DHT22;9177;49.156;8.142;2023-04-24T08:31:57;20.20;93.80
18101;DHT22;9177;49.156;8.142;2023-04-24T08:34:25;20.30;93.70
18101;DHT22;9177;49.156;8.142;2023-04-24T08:36:52;20.30;93.70
18101;DHT22;9177;49.156;8.142;2023-04-24T08:39:19;20.30;93.70
18101;DHT22;9177;49.156;8.142;2023-04-24T08:41:48;20.40;93.70
18101;DHT22;9177;49.156;8.142;2023-04-24T08:44:16;20.40;93.70
18101;DHT22;9177;49.156;8.142;2023-04-24T08:46:43;20.40;93.70
18101;DHT22;9177;49.156;8.142;2023-04-24T08:49:13;20.30;93.70
18101;DHT22;9177;49.156;8.142;2023-04-24T08:51:43;20.30;93.70
18101;DHT22;9177;49.156;8.142;2023-04-24T08:54:12;20.30;93.70
18101;DHT22;9177;49.156;8.142;2023-04-24T08:56:40;20.20;93.70
18101;DHT22;9177;49.156;8.142;2023-04-24T08:59:10;20.20;93.80
18101;DHT22;9177;49.156;8.142;2023-04-24T09:01:37;20.20;93.80
18101;DHT22;9177;49.156;8.142;2023-04-24T09:04:07;20.10;93.80
18101;DHT22;9177;49.156;8.142;2023-04-24T09:06:35;20.10;93.80
18101;DHT22;9177;49.156;8.142;2023-04-24T09:09:04;20.10;93.80
18101;DHT22;9177;49.156;8.142;2023-04-24T09:11:32;20.10;93.80
18101;DHT22;9177;49.156;8.142;2023-04-24T09:13:59;20.10;93.80
18101;DHT22;9177;49.156;8.142;2023-04-24T09:16:27;20.10;93.80
18101;DHT22;9177;49.156;8.142;2023-04-24T09:18:55;20.10;93.80
18101;DHT22;9177;49.156;8.142;2023-04-24T09:21:22;20.10;93.70
18101;DHT22;9177;49.156;8.142;2023-04-24T09:23:58;20.20;93.70
18101;DHT22;9177;49.156;8.142;2023-04-24T09:26:29;20.20;93.60
18101;DHT22;9177;49.156;8.142;2023-04-24T09:28:57;20.30;93.50
18101;DHT22;9177;49.156;8.142;2023-04-24T09:31:27;20.40;93.50
18101;DHT22;9177;49.156;8.142;2023-04-24T09:33:55;20.30;93.40
18101;DHT22;9177;49.156;8.142;2023-04-24T09:36:29;20.40;93.40
18101;DHT22;9177;49.156;8.142;2023-04-24T09:38:58;20.40;93.30
18101;DHT22;9177;49.156;8.142;2023-04-24T09:41:28;20.40;93.30
18101;DHT22;9177;49.156;8.142;2023-04-24T09:43:55;20.40;93.30
18101;DHT22;9177;49.156;8.142;2023-04-24T09:46:29;20.40;93.30
18101;DHT22;9177;49.156;8.142;2023-04-24T09:48:57;20.40;93.40
18101;DHT22;9177;49.156;8.142;2023-04-24T09:51:34;20.40;93.80
18101;DHT22;9177;49.156;8.142;2023-04-24T09:54:03;20.40;93.40
18101;DHT22;9177;49.156;8.142;2023-04-24T09:56:34;20.30;93.50
18101;DHT22;9177;49.156;8.142;2023-04-24T09:59:05;20.30;93.50
18101;DHT22;9177;49.156;8.142;2023-04-24T10:01:33;20.30;93.60
18101;DHT22;9177;49.156;8.142;2023-04-24T10:04:00;20.30;93.60
18101;DHT22;9177;49.156;8.142;2023-04-24T10:06:33;20.20;93.60
18101;DHT22;9177;49.156;8.142;2023-04-24T10:09:00;20.20;93.60
18101;DHT22;9177;49.156;8.142;2023-04-24T10:11:28;20.20;93.70
18101;DHT22;9177;49.156;8.142;2023-04-24T10:13:56;20.20;93.70
18101;DHT22;9177;49.156;8.142;2023-04-24T10:16:24;20.20;93.70
18101;DHT22;9177;49.156;8.142;2023-04-24T10:18:52;20.20;93.70
18101;DHT22;9177;49.156;8.142;2023-04-24T10:21:20;20.20;93.70
18101;DHT22;9177;49.156;8.142;2023-04-24T10:23:48;20.20;93.70
18101;DHT22;9177;49.156;8.142;2023-04-24T10:26:16;20.20;93.70
18101;DHT22;9177;49.156;8.142;2023-04-24T10:28:45;20.20;93.70
18101;DHT22;9177;49.156;8.142;2023-04-24T10:31:14;20.30;93.70
18101;DHT22;9177;49.156;8.142;2023-04-24T10:33:42;20.30;93.70
18101;DHT22;9177;49.156;8.142;2023-04-24T10:36:10;20.30;93.70
18101;DHT22;9177;49.156;8.142;2023-04-24T10:38:40;20.30;93.70
18101;DHT22;9177;49.156;8.142;2023-04-24T10:41:08;20.20;93.70
18101;DHT22;9177;49.156;8.142;2023-04-24T10:43:40;20.20;93.70
18101;DHT22;9177;49.156;8.142;2023-04-24T10:46:08;20.20;93.80
18101;DHT22;9177;49.156;8.142;2023-04-24T10:48:42;20.20;93.80
18101;DHT22;9177;49.156;8.142;2023-04-24T10:51:11;20.20;93.80
18101;DHT22;9177;49.156;8.142;2023-04-24T10:53:39;20.10;93.80
18101;DHT22;9177;49.156;8.142;2023-04-24T10:56:07;20.20;93.90
18101;DHT22;9177;49.156;8.142;2023-04-24T10:58:40;20.10;93.80
18101;DHT22;9177;49.156;8.142;2023-04-24T11:01:23;20.10;93.90
18101;DHT22;9177;49.156;8.142;2023-04-24T11:03:55;20.10;93.90
18101;DHT22;9177;49.156;8.142;2023-04-24T11:06:29;20.10;93.80
18101;DHT22;9177;49.156;8.142;2023-04-24T11:09:02;20.20;93.80
18101;DHT22;9177;49.156;8.142;2023-04-24T11:11:29;20.20;93.80
18101;DHT22;9177;49.156;8.142;2023-04-24T11:14:07;20.20;93.80
18101;DHT22;9177;49.156;8.142;2023-04-24T11:16:36;20.20;93.80
18101;DHT22;9177;49.156;8.142;2023-04-24T11:19:06;20.30;93.80
18101;DHT22;9177;49.156;8.142;2023-04-24T11:21:41;20.30;93.80
18101;DHT22;9177;49.156;8.142;2023-04-24T11:24:31;20.30;93.80
18101;DHT22;9177;49.156;8.142;2023-04-24T11:27:00;20.20;93.80
18101;DHT22;9177;49.156;8.142;2023-04-24T11:29:46;20.20;93.80
18101;DHT22;9177;49.156;8.142;2023-04-24T11:32:18;20.20;93.80
18101;DHT22;9177;49.156;8.142;2023-04-24T11:34:48;20.30;93.80
18101;DHT22;9177;49.156;8.142;2023-04-24T11:37:15;20.30;93.80
18101;DHT22;9177;49.156;8.142;2023-04-24T11:39:42;20.30;93.80
18101;DHT22;9177;49.156;8.142;2023-04-24T11:42:09;20.30;93.70
18101;DHT22;9177;49.156;8.142;2023-04-24T11:44:36;20.30;93.90
18101;DHT22;9177;49.156;8.142;2023-04-24T11:47:04;20.40;94.00
18101;DHT22;9177;49.156;8.142;2023-04-24T11:49:32;20.40;93.90
18101;DHT22;9177;49.156;8.142;2023-04-24T11:52:01;20.40;93.80
18101;DHT22;9177;49.156;8.142;2023-04-24T11:54:28;20.40;93.70
18101;DHT22;9177;49.156;8.142;2023-04-24T11:56:55;20.30;93.70
18101;DHT22;9177;49.156;8.142;2023-04-24T11:59:23;20.30;93.60
18101;DHT22;9177;49.156;8.142;2023-04-24T12:01:50;20.30;93.60
18101;DHT22;9177;49.156;8.142;2023-04-24T12:04:17;20.30;94.10
18101;DHT22;9177;49.156;8.142;2023-04-24T12:07:02;20.30;94.30
18101;DHT22;9177;49.156;8.142;2023-04-24T12:09:41;20.30;94.20
18101;DHT22;9177;49.156;8.142;2023-04-24T12:12:08;20.30;94.10
18101;DHT22;9177;49.156;8.142;2023-04-24T12:14:42;20.30;94.10
18101;DHT22;9177;49.156;8.142;2023-04-24T12:17:09;20.30;94.00
18101;DHT22;9177;49.156;8.142;2023-04-24T12:19:36;20.30;93.90
18101;DHT22;9177;49.156;8.142;2023-04-24T12:22:06;20.30;94.00
18101;DHT22;9177;49.156;8.142;2023-04-24T12:24:33;20.30;94.00
18101;DHT22;9177;49.156;8.142;2023-04-24T12:27:00;20.30;93.90
18101;DHT22;9177;49.156;8.142;2023-04-24T12:29:28;20.30;93.90
18101;DHT22;9177;49.156;8.142;2023-04-24T12:31:55;20.40;94.00
18101;DHT22;9177;49.156;8.142;2023-04-24T12:34:23;20.40;94.10
18101;DHT22;9177;49.156;8.142;2023-04-24T12:36:51;20.40;94.10
18101;DHT22;9177;49.156;8.142;2023-04-24T12:39:20;20.50;94.10
18101;DHT22;9177;49.156;8.142;2023-04-24T12:41:55;20.50;94.00
18101;DHT22;9177;49.156;8.142;2023-04-24T12:44:33;20.50;94.00
18101;DHT22;9177;49.156;8.142;2023-04-24T12:47:01;20.60;93.90
18101;DHT22;9177;49.156;8.142;2023-04-24T12:49:30;20.70;93.80
18101;DHT22;9177;49.156;8.142;2023-04-24T12:51:56;20.80;93.70
18101;DHT22;9177;49.156;8.142;2023-04-24T12:54:25;20.90;93.60
18101;DHT22;9177;49.156;8.142;2023-04-24T12:56:52;21.00;93.60
18101;DHT22;9177;49.156;8.142;2023-04-24T12:59:19;21.20;93.40
18101;DHT22;9177;49.156;8.142;2023-04-24T13:01:45;21.30;93.30
18101;DHT22;9177;49.156;8.142;2023-04-24T13:04:13;21.30;93.10
18101;DHT22;9177;49.156;8.142;2023-04-24T13:06:39;21.40;93.00
18101;DHT22;9177;49.156;8.142;2023-04-24T13:09:06;21.30;93.00
18101;DHT22;9177;49.156;8.142;2023-04-24T13:11:35;21.30;93.10
18101;DHT22;9177;49.156;8.142;2023-04-24T13:14:02;21.20;93.00
18101;DHT22;9177;49.156;8.142;2023-04-24T13:16:29;21.30;93.00
18101;DHT22;9177;49.156;8.142;2023-04-24T13:18:56;21.40;93.00
18101;DHT22;9177;49.156;8.142;2023-04-24T13:21:23;21.40;92.90
18101;DHT22;9177;49.156;8.142;2023-04-24T13:23:49;21.30;92.90
18101;DHT22;9177;49.156;8.142;2023-04-24T13:26:17;21.20;93.00
18101;DHT22;9177;49.156;8.142;2023-04-24T13:28:45;21.10;93.10
18101;DHT22;9177;49.156;8.142;2023-04-24T13:31:12;21.00;93.10
18101;DHT22;9177;49.156;8.142;2023-04-24T13:33:39;20.90;93.20
18101;DHT22;9177;49.156;8.142;2023-04-24T13:36:06;20.90;93.30
18101;DHT22;9177;49.156;8.142;2023-04-24T13:38:34;20.80;93.30
18101;DHT22;9177;49.156;8.142;2023-04-24T13:41:01;20.80;93.40
18101;DHT22;9177;49.156;8.142;2023-04-24T13:43:28;20.80;93.40
18101;DHT22;9177;49.156;8.142;2023-04-24T13:45:56;20.80;93.40
18101;DHT22;9177;49.156;8.142;2023-04-24T13:48:25;20.90;93.40
18101;DHT22;9177;49.156;8.142;2023-04-24T13:50:51;21.10;93.30
18101;DHT22;9177;49.156;8.142;2023-04-24T13:53:18;21.20;93.10
18101;DHT22;9177;49.156;8.142;2023-04-24T13:55:45;21.30;93.00
18101;DHT22;9177;49.156;8.142;2023-04-24T13:58:12;21.30;92.90
18101;DHT22;9177;49.156;8.142;2023-04-24T14:00:39;21.20;92.90
18101;DHT22;9177;49.156;8.142;2023-04-24T14:03:07;21.10;93.00
18101;DHT22;9177;49.156;8.142;2023-04-24T14:05:34;21.00;93.10
18101;DHT22;9177;49.156;8.142;2023-04-24T14:08:01;20.90;93.20
18101;DHT22;9177;49.156;8.142;2023-04-24T14:10:28;20.80;93.20
18101;DHT22;9177;49.156;8.142;2023-04-24T14:12:55;20.80;93.30
18101;DHT22;9177;49.156;8.142;2023-04-24T14:15:22;20.80;93.30
18101;DHT22;9177;49.156;8.142;2023-04-24T14:17:49;20.70;93.30
18101;DHT22;9177;49.156;8.142;2023-04-24T14:20:17;20.70;93.30
18101;DHT22;9177;49.156;8.142;2023-04-24T14:22:45;20.60;93.30
18101;DHT22;9177;49.156;8.142;2023-04-24T14:25:12;20.60;93.40
18101;DHT22;9177;49.156;8.142;2023-04-24T14:27:39;20.60;93.40
18101;DHT22;9177;49.156;8.142;2023-04-24T14:30:07;20.50;93.30
18101;DHT22;9177;49.156;8.142;2023-04-24T14:32:34;20.50;93.30
18101;DHT22;9177;49.156;8.142;2023-04-24T14:35:01;20.50;93.40
18101;DHT22;9177;49.156;8.142;2023-04-24T14:37:30;20.40;93.40
18101;DHT22;9177;49.156;8.142;2023-04-24T14:39:57;20.50;93.50
18101;DHT22;9177;49.156;8.142;2023-04-24T14:42:23;20.40;93.50
18101;DHT22;9177;49.156;8.142;2023-04-24T14:44:51;20.40;93.50
18101;DHT22;9177;49.156;8.142;2023-04-24T14:47:18;20.40;93.50
18101;DHT22;9177;49.156;8.142;2023-04-24T14:49:47;20.40;93.60
18101;DHT22;9177;49.156;8.142;2023-04-24T14:52:14;20.40;93.60
18101;DHT22;9177;49.156;8.142;2023-04-24T14:54:43;20.40;93.60
18101;DHT22;9177;49.156;8.142;2023-04-24T14:57:10;20.40;93.60
18101;DHT22;9177;49.156;8.142;2023-04-24T14:59:37;20.40;93.70
18101;DHT22;9177;49.156;8.142;2023-04-24T15:02:04;20.40;93.70
18101;DHT22;9177;49.156;8.142;2023-04-24T15:04:31;20.30;93.70
18101;DHT22;9177;49.156;8.142;2023-04-24T15:06:58;20.40;93.70
18101;DHT22;9177;49.156;8.142;2023-04-24T15:09:25;20.40;93.70
18101;DHT22;9177;49.156;8.142;2023-04-24T15:11:54;20.40;93.70
18101;DHT22;9177;49.156;8.142;2023-04-24T15:14:22;20.30;93.70
18101;DHT22;9177;49.156;8.142;2023-04-24T15:16:49;20.30;93.70
18101;DHT22;9177;49.156;8.142;2023-04-24T15:19:16;20.30;93.70
18101;DHT22;9177;49.156;8.142;2023-04-24T15:21:43;20.30;94.20
18101;DHT22;9177;49.156;8.142;2023-04-24T15:24:10;20.30;93.80
18101;DHT22;9177;49.156;8.142;2023-04-24T15:26:37;20.30;93.80
18101;DHT22;9177;49.156;8.142;2023-04-24T15:29:05;20.30;93.80
18101;DHT22;9177;49.156;8.142;2023-04-24T15:31:32;20.40;93.90
18101;DHT22;9177;49.156;8.142;2023-04-24T15:33:59;20.50;93.80
18101;DHT22;9177;49.156;8.142;2023-04-24T15:36:26;20.60;93.80
18101;DHT22;9177;49.156;8.142;2023-04-24T15:38:53;20.60;93.70
18101;DHT22;9177;49.156;8.142;2023-04-24T15:41:20;20.70;93.70
18101;DHT22;9177;49.156;8.142;2023-04-24T15:43:47;20.80;93.60
18101;DHT22;9177;49.156;8.142;2023-04-24T15:46:16;20.90;93.50
18101;DHT22;9177;49.156;8.142;2023-04-24T15:48:42;21.00;93.40